Time;durP1;ratioP1;P1;durP2;ratioP2;P2;SDS_P1;SDS_P2;PMS_P1;PMS_P2;Temp;Humidity;BMP_temperature;BMP_pressure;BME280_temperature;BME280_humidity;BME280_pressure;Samples;Min_cycle;Max_cycle;Signal;HPM_P1;HPM_P2
2023/05/31 00:01:06;;;;;;;1.00;0.30;;;;;;;11.62;54.41;101845.88;4968306;28;20047;-74
2023/05/31 00:03:33;;;;;;;3.20;0.20;;;;;;;11.61;54.07;101838.88;4963916;28;20129;-75
2023/05/31 00:06:00;;;;;;;5.93;0.45;;;;;;;11.63;54.00;101837.16;4964542;28;20061;-75
2023/05/31 00:08:28;;;;;;;1.95;0.20;;;;;;;11.62;54.28;101835.41;4966276;28;20043;-76
2023/05/31 00:10:55;;;;;;;1.20;0.30;;;;;;;11.57;54.32;101821.47;4966613;28;20557;-74
2023/05/31 00:13:22;;;;;;;0.63;0.20;;;;;;;11.58;53.99;101815.34;4966203;28;20081;-73
2023/05/31 00:15:49;;;;;;;2.75;0.30;;;;;;;11.60;54.29;101813.63;4965112;28;20057;-74
2023/05/31 00:18:16;;;;;;;3.58;0.30;;;;;;;11.57;54.29;101813.63;4966424;28;20134;-75
2023/05/31 00:20:43;;;;;;;1.73;0.30;;;;;;;11.58;54.49;101804.91;4962694;28;20157;-74
2023/05/31 00:23:10;;;;;;;2.38;0.20;;;;;;;11.56;54.77;101801.44;4966785;28;20050;-74
2023/05/31 00:25:39;;;;;;;0.85;0.30;;;;;;;11.52;54.60;101797.09;4963469;28;20129;-74
2023/05/31 00:28:06;;;;;;;5.05;0.30;;;;;;;11.53;54.75;101791.00;4970558;28;20170;-75
2023/05/31 00:30:33;;;;;;;0.60;0.20;;;;;;;11.45;54.49;101776.19;4962851;28;20047;-74
2023/05/31 00:33:00;;;;;;;0.98;0.28;;;;;;;11.47;54.89;101776.19;4968786;28;20125;-75
2023/05/31 00:35:27;;;;;;;1.15;0.30;;;;;;;11.48;54.44;101788.38;4964163;28;20658;-74
2023/05/31 00:37:54;;;;;;;0.90;0.30;;;;;;;11.45;54.71;101773.56;4966465;28;20043;-75
2023/05/31 00:40:21;;;;;;;1.35;0.40;;;;;;;11.45;54.75;101772.72;4955031;28;20058;-75
2023/05/31 00:42:50;;;;;;;1.20;0.28;;;;;;;11.44;54.61;101771.84;4940540;28;20054;-74
2023/05/31 00:45:17;;;;;;;2.45;0.22;;;;;;;11.41;54.95;101756.19;4940951;28;20156;-74
2023/05/31 00:47:44;;;;;;;1.73;0.60;;;;;;;11.39;54.84;101749.22;4940048;28;20062;-74
2023/05/31 00:50:12;;;;;;;0.77;0.30;;;;;;;11.24;54.49;101724.88;4943106;28;20145;-73
2023/05/31 00:52:39;;;;;;;1.23;0.20;;;;;;;11.35;54.98;101735.25;4939813;28;20092;-73
2023/05/31 00:55:08;;;;;;;3.40;0.32;;;;;;;11.39;54.62;101741.38;4943228;28;20495;-73
2023/05/31 00:57:36;;;;;;;1.90;0.43;;;;;;;11.35;54.93;101730.03;4939887;28;20051;-73
2023/05/31 01:00:05;;;;;;;1.35;0.30;;;;;;;11.37;55.16;101732.66;4942527;28;20078;-75
2023/05/31 01:02:34;;;;;;;4.53;0.40;;;;;;;11.36;55.22;101737.03;4939133;28;20787;-73
2023/05/31 01:05:01;;;;;;;1.15;0.30;;;;;;;11.36;54.89;101725.69;4950987;28;20522;-73
2023/05/31 01:07:28;;;;;;;1.85;0.30;;;;;;;11.36;55.01;101729.16;4937752;28;20057;-73
2023/05/31 01:09:55;;;;;;;1.17;0.30;;;;;;;11.34;55.20;101723.06;4965695;28;20062;-73
2023/05/31 01:12:30;;;;;;;2.03;0.45;;;;;;;11.33;54.86;101712.63;4964164;28;20039;-73
2023/05/31 01:15:10;;;;;;;2.25;0.30;;;;;;;11.25;55.29;101697.84;4962500;28;20079;-73
2023/05/31 01:17:46;;;;;;;6.22;0.30;;;;;;;11.22;55.24;101702.22;4927207;29;20047;-73
2023/05/31 01:20:17;;;;;;;1.30;0.20;;;;;;;11.21;55.03;101690.00;4930348;29;20093;-73
2023/05/31 01:23:04;;;;;;;3.25;0.20;;;;;;;11.24;55.42;101700.44;4925584;29;20471;-73
2023/05/31 01:25:43;;;;;;;1.73;0.30;;;;;;;11.22;55.01;101694.38;4929010;29;20097;-73
2023/05/31 01:28:13;;;;;;;4.47;0.93;;;;;;;11.22;55.30;101695.25;4926100;29;20058;-74
2023/05/31 01:30:40;;;;;;;2.72;0.30;;;;;;;11.16;55.33;101681.34;4929643;29;20050;-73
2023/05/31 01:33:10;;;;;;;2.03;0.40;;;;;;;11.20;55.57;101686.53;4928575;29;20048;-73
2023/05/31 01:35:37;;;;;;;0.90;0.30;;;;;;;11.21;55.15;101687.41;4928249;29;20102;-73
2023/05/31 01:38:05;;;;;;;0.70;0.30;;;;;;;11.12;54.99;101659.56;4927265;29;20055;-73
2023/05/31 01:40:32;;;;;;;1.38;0.20;;;;;;;11.07;55.08;101645.69;4926314;29;20496;-74
2023/05/31 01:43:00;;;;;;;3.45;0.45;;;;;;;11.20;55.18;101675.22;4928119;29;20144;-73
2023/05/31 01:45:29;;;;;;;2.65;0.40;;;;;;;11.20;55.45;101669.97;4924687;29;20544;-73
2023/05/31 01:48:03;;;;;;;1.75;0.28;;;;;;;11.12;55.45;101656.09;4930217;29;20131;-72
2023/05/31 01:50:31;;;;;;;1.85;0.22;;;;;;;11.18;55.38;101669.97;4927417;29;20058;-73
2023/05/31 01:52:58;;;;;;;1.33;0.30;;;;;;;11.18;55.08;101663.88;4928951;29;20055;-73
2023/05/31 01:55:25;;;;;;;2.05;0.40;;;;;;;11.18;55.21;101663.88;4929762;29;21185;-74
2023/05/31 01:57:53;;;;;;;2.22;0.30;;;;;;;11.13;55.17;101650.00;4925046;29;20834;-73
2023/05/31 02:00:22;;;;;;;2.38;0.20;;;;;;;11.16;55.18;101663.03;4927443;29;20058;-73
2023/05/31 02:02:52;;;;;;;1.23;0.20;;;;;;;11.17;55.31;101664.78;4922701;29;20465;-73
2023/05/31 02:05:19;;;;;;;2.20;0.63;;;;;;;11.15;55.08;101658.69;4929505;29;20058;-73
2023/05/31 02:07:47;;;;;;;2.20;0.20;;;;;;;11.09;55.30;101650.88;4926433;29;20054;-74
2023/05/31 02:10:14;;;;;;;2.45;0.20;;;;;;;11.11;55.16;101650.00;4928754;29;20083;-74
2023/05/31 02:12:41;;;;;;;0.68;0.30;;;;;;;11.15;55.12;101650.84;4929664;29;20059;-74
2023/05/31 02:15:10;;;;;;;2.05;0.40;;;;;;;11.14;55.25;101643.88;4927327;28;20404;-74
2023/05/31 02:17:40;;;;;;;2.40;0.20;;;;;;;11.12;55.19;101643.00;4965218;28;20055;-74
2023/05/31 02:20:12;;;;;;;2.25;0.30;;;;;;;11.13;55.61;101645.63;4963178;28;20169;-74
2023/05/31 02:22:40;;;;;;;2.67;0.30;;;;;;;11.13;55.08;101635.16;4965474;28;20488;-74
2023/05/31 02:25:09;;;;;;;2.70;0.30;;;;;;;11.13;55.16;101639.53;4961769;28;20054;-74
2023/05/31 02:27:35;;;;;;;1.13;0.20;;;;;;;11.11;55.18;101650.00;4966689;28;20380;-73
2023/05/31 02:30:04;;;;;;;2.30;0.20;;;;;;;11.13;55.42;101660.47;4967807;28;20134;-74
2023/05/31 02:32:35;;;;;;;2.25;0.20;;;;;;;11.13;55.25;101655.22;4962811;28;20047;-73
2023/05/31 02:35:04;;;;;;;1.08;0.25;;;;;;;11.12;55.21;101653.47;4959144;28;20062;-74
2023/05/31 02:37:33;;;;;;;1.75;0.20;;;;;;;11.11;55.32;101646.50;4966014;28;20047;-74
2023/05/31 02:40:00;;;;;;;1.23;0.22;;;;;;;11.05;54.84;101620.41;4965078;28;20053;-73
2023/05/31 02:42:27;;;;;;;2.97;0.20;;;;;;;11.13;55.37;101629.94;4968900;28;20039;-74
2023/05/31 02:44:54;;;;;;;1.85;0.30;;;;;;;11.13;55.26;101622.09;4965703;28;20042;-74
2023/05/31 02:47:21;;;;;;;0.40;0.20;;;;;;;11.13;55.18;101614.25;4967402;28;20047;-74
2023/05/31 02:49:47;;;;;;;0.50;0.20;;;;;;;11.14;55.38;101617.72;4968934;28;20047;-73
2023/05/31 02:52:14;;;;;;;0.57;0.20;;;;;;;11.14;55.34;101618.59;4969905;28;20110;-74
2023/05/31 02:54:43;;;;;;;0.47;0.28;;;;;;;11.14;54.92;101621.22;4968605;28;20562;-74
2023/05/31 02:57:09;;;;;;;0.80;0.30;;;;;;;11.09;55.51;101606.44;4965143;28;20133;-73
2023/05/31 02:59:36;;;;;;;1.00;0.32;;;;;;;11.14;55.27;101608.13;4970265;28;20778;-72
2023/05/31 03:02:03;;;;;;;0.55;0.17;;;;;;;11.17;55.17;101605.50;4967305;28;20137;-72
2023/05/31 03:04:32;;;;;;;2.67;0.20;;;;;;;11.18;55.14;101601.13;4967862;28;20504;-72
2023/05/31 03:06:59;;;;;;;0.70;0.15;;;;;;;11.19;55.33;101597.66;4965559;28;20057;-72
2023/05/31 03:09:26;;;;;;;1.65;0.20;;;;;;;11.20;55.48;101599.38;4967205;28;20054;-72
2023/05/31 03:11:54;;;;;;;1.85;0.20;;;;;;;11.22;55.07;101597.63;4969376;28;20126;-73
2023/05/31 03:14:21;;;;;;;0.50;0.22;;;;;;;11.23;55.40;101600.22;4966053;28;20093;-72
2023/05/31 03:16:48;;;;;;;0.65;0.20;;;;;;;11.25;55.29;101597.59;4968926;28;20058;-71
2023/05/31 03:19:15;;;;;;;0.28;0.20;;;;;;;11.26;55.39;101600.19;4965397;28;20042;-72
2023/05/31 03:21:42;;;;;;;0.28;0.10;;;;;;;11.29;55.70;101598.44;4968578;28;20050;-72
2023/05/31 03:24:09;;;;;;;0.55;0.10;;;;;;;11.33;55.43;101592.31;4967162;28;20049;-72
2023/05/31 03:26:36;;;;;;;0.85;0.20;;;;;;;11.34;55.41;101597.50;4968465;28;20043;-72
2023/05/31 03:29:04;;;;;;;1.15;0.20;;;;;;;11.37;55.32;101587.03;4965060;28;20619;-72
2023/05/31 03:31:32;;;;;;;1.08;0.30;;;;;;;11.41;55.76;101580.00;4965446;28;20388;-72
2023/05/31 03:33:59;;;;;;;0.20;0.10;;;;;;;11.43;55.34;101571.25;4967752;28;20046;-71
2023/05/31 03:36:26;;;;;;;2.95;0.20;;;;;;;11.46;55.28;101565.13;4966616;28;20048;-72
2023/05/31 03:38:53;;;;;;;0.47;0.10;;;;;;;11.52;55.57;101572.06;4968008;28;20054;-72
2023/05/31 03:41:20;;;;;;;0.20;0.10;;;;;;;11.56;55.50;101573.78;4965908;28;20051;-73
2023/05/31 03:43:47;;;;;;;0.10;0.10;;;;;;;11.59;55.38;101581.59;4967686;28;20121;-72
2023/05/31 03:46:15;;;;;;;2.10;0.10;;;;;;;11.64;55.56;101575.44;4967071;28;20046;-72
2023/05/31 03:48:42;;;;;;;2.45;0.15;;;;;;;11.69;55.58;101573.63;4965630;28;20078;-72
2023/05/31 03:51:09;;;;;;;0.32;0.10;;;;;;;11.75;55.63;101571.81;4966052;28;20563;-72
2023/05/31 03:53:35;;;;;;;1.58;0.20;;;;;;;11.78;55.57;101577.03;4966273;28;20047;-73
2023/05/31 03:56:05;;;;;;;2.20;0.20;;;;;;;11.85;55.46;101584.84;4965024;28;20446;-74
2023/05/31 03:58:31;;;;;;;0.70;0.20;;;;;;;11.90;55.55;101576.94;4966587;28;20046;-72
2023/05/31 04:00:58;;;;;;;1.10;0.20;;;;;;;11.99;55.24;101586.44;4968657;28;20057;-72
2023/05/31 04:03:27;;;;;;;1.75;0.20;;;;;;;12.00;55.00;101577.69;4964388;28;20051;-73
2023/05/31 04:05:54;;;;;;;1.30;0.20;;;;;;;12.11;54.81;101586.31;4969292;28;20077;-73
2023/05/31 04:08:21;;;;;;;4.25;1.95;;;;;;;12.20;55.09;101586.19;4966334;28;20101;-72
2023/05/31 04:10:48;;;;;;;1.55;0.35;;;;;;;12.28;54.94;101578.25;4964709;28;20472;-72
2023/05/31 04:13:15;;;;;;;0.35;0.35;;;;;;;12.26;54.86;101565.16;4963728;28;21198;-73
2023/05/31 04:15:42;;;;;;;0.20;0.10;;;;;;;12.44;55.06;101586.78;4967755;28;20070;-73
2023/05/31 04:18:09;;;;;;;2.35;0.20;;;;;;;12.52;54.74;101584.91;4968177;28;20053;-74
2023/05/31 04:20:37;;;;;;;1.75;0.10;;;;;;;12.62;54.89;101583.03;4962505;28;20055;-73
2023/05/31 04:23:04;;;;;;;0.40;0.10;;;;;;;12.70;54.53;101587.28;4969869;28;20497;-73
2023/05/31 04:25:31;;;;;;;1.85;0.10;;;;;;;12.78;54.56;101588.03;4963438;28;20051;-74
2023/05/31 04:27:58;;;;;;;0.85;0.10;;;;;;;12.89;54.78;101592.25;4968047;28;20056;-73
2023/05/31 04:30:26;;;;;;;3.40;0.10;;;;;;;13.00;54.74;101596.44;4965650;28;20194;-74
2023/05/31 04:32:52;;;;;;;0.75;0.13;;;;;;;13.10;54.70;101594.53;4966624;28;20051;-74
2023/05/31 04:35:19;;;;;;;0.47;0.10;;;;;;;13.17;54.94;101595.31;4968029;28;20065;-73
2023/05/31 04:37:52;;;;;;;1.90;0.10;;;;;;;13.33;54.74;101599.44;4966330;28;20058;-73
2023/05/31 04:40:19;;;;;;;2.70;0.50;;;;;;;13.44;54.99;101602.75;4965930;28;20512;-73
2023/05/31 04:42:46;;;;;;;2.50;0.15;;;;;;;13.60;54.27;101599.84;4966873;28;20050;-73
2023/05/31 04:45:15;;;;;;;0.17;0.10;;;;;;;13.75;53.81;101602.22;4964668;28;20507;-73
2023/05/31 04:47:42;;;;;;;1.23;0.10;;;;;;;13.84;53.86;101598.56;4967389;28;20117;-73
2023/05/31 04:50:10;;;;;;;0.85;0.20;;;;;;;13.97;53.67;101592.16;4966469;28;20058;-73
2023/05/31 04:52:39;;;;;;;2.83;0.20;;;;;;;14.12;53.28;101591.88;4966024;28;20487;-73
2023/05/31 04:55:09;;;;;;;0.90;0.10;;;;;;;14.22;53.40;101587.28;4965390;28;20192;-74
2023/05/31 04:57:36;;;;;;;2.03;0.10;;;;;;;14.40;52.86;101592.16;4966267;28;20538;-73
2023/05/31 05:00:08;;;;;;;1.67;0.10;;;;;;;14.51;53.01;101594.53;4968457;28;20074;-73
2023/05/31 05:02:35;;;;;;;1.00;0.52;;;;;;;14.68;52.78;101595.97;4965326;28;20690;-74
2023/05/31 05:05:03;;;;;;;1.95;0.10;;;;;;;14.80;52.30;101593.94;4964464;28;20137;-73
2023/05/31 05:07:30;;;;;;;1.27;0.20;;;;;;;14.95;51.87;101594.50;4964365;28;20055;-74
2023/05/31 05:09:57;;;;;;;0.15;0.15;;;;;;;15.06;51.89;101592.47;4967236;28;20458;-73
2023/05/31 05:12:25;;;;;;;0.45;0.10;;;;;;;15.19;51.71;101593.03;4964245;28;20613;-73
2023/05/31 05:14:52;;;;;;;4.03;0.20;;;;;;;15.34;51.50;101592.66;4961908;28;20410;-73
2023/05/31 05:17:20;;;;;;;0.20;0.10;;;;;;;15.48;50.99;101594.91;4964407;28;20459;-73
2023/05/31 05:19:47;;;;;;;2.28;0.20;;;;;;;15.56;50.87;101586.81;4963451;28;20094;-71
2023/05/31 05:22:14;;;;;;;0.52;0.10;;;;;;;15.73;50.95;101595.19;4967006;28;20050;-73
2023/05/31 05:24:41;;;;;;;0.25;0.20;;;;;;;15.86;50.42;101599.22;4966454;28;20566;-73
2023/05/31 05:27:08;;;;;;;0.43;0.10;;;;;;;15.99;50.15;101605.00;4964598;28;20054;-72
2023/05/31 05:29:37;;;;;;;1.42;0.20;;;;;;;16.12;49.71;101603.75;4965516;28;20062;-72
2023/05/31 05:32:04;;;;;;;0.40;0.20;;;;;;;16.23;49.42;101589.41;4962770;28;20057;-72
2023/05/31 05:34:31;;;;;;;0.30;0.20;;;;;;;16.35;48.89;101595.19;4963562;28;20423;-72
2023/05/31 05:36:58;;;;;;;1.10;0.43;;;;;;;16.51;48.60;101605.28;4967296;28;20113;-72
2023/05/31 05:39:25;;;;;;;1.95;0.17;;;;;;;16.47;48.16;101572.84;4962402;28;20051;-72
2023/05/31 05:41:52;;;;;;;1.85;0.20;;;;;;;16.70;48.26;101587.97;4963808;28;20065;-72
2023/05/31 05:44:19;;;;;;;0.93;0.73;;;;;;;16.78;47.75;101588.63;4962346;28;20098;-72
2023/05/31 05:46:47;;;;;;;0.20;0.10;;;;;;;16.85;47.33;101598.09;4964098;28;20651;-73
2023/05/31 05:49:14;;;;;;;1.13;0.10;;;;;;;16.90;47.14;101610.28;4963849;28;20085;-73
2023/05/31 05:51:41;;;;;;;1.10;0.15;;;;;;;16.96;46.97;101604.78;4959204;28;20587;-72
2023/05/31 05:54:08;;;;;;;0.28;0.10;;;;;;;17.00;46.43;101615.22;4962562;28;20058;-73
2023/05/31 05:56:36;;;;;;;0.80;0.20;;;;;;;17.05;46.04;101610.66;4948306;28;20954;-72
2023/05/31 05:59:06;;;;;;;2.20;0.20;;;;;;;17.14;45.88;101617.41;4959907;28;20522;-71
2023/05/31 06:01:33;;;;;;;1.02;0.15;;;;;;;17.17;45.72;101612.03;4964241;28;20113;-72
2023/05/31 06:04:01;;;;;;;4.60;0.25;;;;;;;17.26;45.67;101624.94;4958655;28;20047;-72
2023/05/31 06:06:28;;;;;;;5.07;0.20;;;;;;;17.22;44.89;101604.84;4962557;28;20066;-71
2023/05/31 06:08:55;;;;;;;1.73;0.03;;;;;;;17.31;44.94;101614.22;4961874;28;20057;-70
2023/05/31 06:11:22;;;;;;;0.40;0.13;;;;;;;17.36;44.07;101619.34;4961671;28;20134;-71
2023/05/31 06:13:49;;;;;;;2.30;0.25;;;;;;;17.39;44.22;101619.22;4965121;28;20086;-71
2023/05/31 06:16:22;;;;;;;0.20;0.13;;;;;;;17.44;44.37;101609.38;4923650;28;1194160;-71
2023/05/31 06:18:48;;;;;;;3.58;0.15;;;;;;;17.45;43.97;101616.41;4961021;28;20491;-71
2023/05/31 06:21:17;;;;;;;0.10;0.10;;;;;;;17.48;42.91;101600.47;4965213;28;20050;-71
2023/05/31 06:23:44;;;;;;;2.22;0.10;;;;;;;17.52;43.14;101610.00;4962468;28;20126;-72
2023/05/31 06:26:12;;;;;;;0.30;0.20;;;;;;;17.54;42.56;101606.38;4964892;28;20054;-71
2023/05/31 06:28:38;;;;;;;0.82;0.20;;;;;;;17.56;42.50;101595.78;4961388;28;20047;-71
2023/05/31 06:31:07;;;;;;;1.85;0.10;;;;;;;17.57;42.79;101600.13;4963476;28;20054;-71
2023/05/31 06:33:34;;;;;;;0.52;0.10;;;;;;;17.58;42.88;101588.66;4963605;28;20051;-71
2023/05/31 06:36:01;;;;;;;6.30;0.20;;;;;;;17.64;42.77;101600.78;4962893;28;20097;-71
2023/05/31 06:38:33;;;;;;;0.70;0.10;;;;;;;17.66;42.52;101599.81;4961185;28;20129;-71
2023/05/31 06:41:00;;;;;;;0.47;0.10;;;;;;;17.69;42.74;101594.41;4959744;28;20047;-72
2023/05/31 06:43:27;;;;;;;1.48;0.30;;;;;;;17.71;42.26;101587.31;4966518;28;20074;-72
2023/05/31 06:45:54;;;;;;;1.65;0.15;;;;;;;17.72;41.56;101589.03;4962372;28;20089;-73
2023/05/31 06:48:21;;;;;;;4.38;0.10;;;;;;;17.74;41.84;101581.06;4965242;28;20054;-71
2023/05/31 06:50:48;;;;;;;1.27;0.20;;;;;;;17.79;41.28;101578.25;4963585;28;20157;-72
2023/05/31 06:53:15;;;;;;;3.13;0.20;;;;;;;17.82;40.88;101567.59;4962987;28;20047;-71
2023/05/31 06:55:43;;;;;;;1.05;0.17;;;;;;;17.79;41.44;101551.84;4962929;28;20162;-72
2023/05/31 06:58:11;;;;;;;2.33;0.10;;;;;;;17.93;41.42;101570.69;4963948;28;20051;-72
2023/05/31 07:00:38;;;;;;;0.10;0.10;;;;;;;17.97;40.95;101577.63;4961870;28;20064;-72
2023/05/31 07:03:06;;;;;;;0.85;0.17;;;;;;;18.09;40.39;101578.94;4966662;28;20419;-72
2023/05/31 07:05:33;;;;;;;3.08;0.10;;;;;;;18.17;39.83;101574.22;4964710;28;20061;-72
2023/05/31 07:08:00;;;;;;;1.48;0.10;;;;;;;18.25;39.76;101571.31;4963382;28;20054;-72
2023/05/31 07:10:27;;;;;;;0.90;0.10;;;;;;;18.36;39.68;101579.69;4961717;28;20039;-72
2023/05/31 07:12:55;;;;;;;3.03;0.15;;;;;;;18.44;39.82;101580.25;4965317;28;20146;-71
2023/05/31 07:15:22;;;;;;;1.90;0.70;;;;;;;18.54;40.15;101583.41;4964785;28;20057;-71
2023/05/31 07:17:49;;;;;;;0.93;0.10;;;;;;;18.60;39.78;101589.31;4963844;28;20419;-71
2023/05/31 07:20:16;;;;;;;1.77;0.10;;;;;;;18.70;39.49;101586.31;4962873;28;20581;-71
2023/05/31 07:22:43;;;;;;;0.20;0.10;;;;;;;18.78;39.62;101594.84;4961227;28;20086;-71
2023/05/31 07:25:10;;;;;;;0.10;0.10;;;;;;;18.83;39.16;101585.78;4963044;28;20047;-71
2023/05/31 07:27:37;;;;;;;2.72;0.13;;;;;;;18.87;39.17;101589.19;4964434;28;20459;-71
2023/05/31 07:30:07;;;;;;;0.10;0.10;;;;;;;18.99;39.83;101596.63;4964981;28;20147;-73
2023/05/31 07:32:34;;;;;;;0.10;0.10;;;;;;;19.07;39.25;101601.63;4966335;28;20069;-71
2023/05/31 07:35:01;;;;;;;0.95;0.10;;;;;;;19.14;38.77;101596.94;4967984;28;20050;-71
2023/05/31 07:37:28;;;;;;;2.60;0.10;;;;;;;19.20;37.88;101599.34;4967690;28;20053;-72
2023/05/31 07:39:55;;;;;;;1.65;0.20;;;;;;;19.30;37.96;101600.69;4966065;28;20464;-71
2023/05/31 07:42:22;;;;;;;2.53;0.10;;;;;;;19.34;37.96;101594.31;4966859;28;20043;-71
2023/05/31 07:44:49;;;;;;;0.50;0.10;;;;;;;19.40;37.94;101591.41;4966937;28;20046;-72
2023/05/31 07:47:19;;;;;;;0.93;0.10;;;;;;;19.47;37.80;101597.31;4965624;28;20440;-72
2023/05/31 07:49:46;;;;;;;1.80;0.10;;;;;;;19.49;37.61;101595.44;4965544;28;20075;-72
2023/05/31 07:52:13;;;;;;;0.20;0.10;;;;;;;19.55;37.64;101595.19;4964657;28;20134;-71
2023/05/31 07:54:40;;;;;;;0.43;0.10;;;;;;;19.59;37.78;101586.19;4967622;28;20093;-71
2023/05/31 07:57:07;;;;;;;0.20;0.10;;;;;;;19.64;37.99;101578.91;4964463;28;20053;-72
2023/05/31 07:59:34;;;;;;;3.88;0.10;;;;;;;19.69;37.73;101591.97;4966148;28;20090;-72
2023/05/31 08:02:01;;;;;;;0.20;0.10;;;;;;;19.73;36.90;101586.47;4964499;28;20051;-71
2023/05/31 08:04:30;;;;;;;2.25;0.17;;;;;;;19.79;36.42;101588.00;4969065;28;20092;-71
2023/05/31 08:06:57;;;;;;;2.55;0.10;;;;;;;19.83;35.99;101586.06;4963410;28;20439;-72
2023/05/31 08:09:24;;;;;;;3.72;0.13;;;;;;;19.88;35.66;101587.59;4966672;28;20050;-71
2023/05/31 08:11:53;;;;;;;0.85;0.10;;;;;;;19.90;35.43;101584.88;4966511;28;20488;-71
2023/05/31 08:14:21;;;;;;;2.47;0.10;;;;;;;19.94;35.26;101591.75;4961490;28;20058;-72
2023/05/31 08:16:49;;;;;;;0.08;0.00;;;;;;;19.93;35.15;101579.44;4967237;28;20054;-71
2023/05/31 08:19:16;;;;;;;2.90;0.10;;;;;;;20.00;35.79;101576.41;4965264;28;20550;-72
2023/05/31 08:21:45;;;;;;;1.35;0.15;;;;;;;20.01;35.96;101577.31;4964437;28;20082;-72
2023/05/31 08:24:12;;;;;;;1.67;0.10;;;;;;;20.08;36.32;101588.50;4966147;28;20452;-73
2023/05/31 08:26:39;;;;;;;1.67;0.20;;;;;;;20.12;36.36;101590.06;4963355;28;20051;-72
2023/05/31 08:29:06;;;;;;;1.85;0.13;;;;;;;20.15;36.01;101581.97;4964999;28;20059;-73
2023/05/31 08:31:35;;;;;;;1.05;0.20;;;;;;;20.17;35.57;101588.06;4966453;28;20117;-74
2023/05/31 08:34:02;;;;;;;0.68;0.10;;;;;;;20.19;34.93;101580.91;4968226;28;20062;-72
2023/05/31 08:36:29;;;;;;;0.68;0.10;;;;;;;20.20;35.25;101577.31;4964874;28;20043;-75
2023/05/31 08:38:58;;;;;;;0.28;0.10;;;;;;;20.19;35.56;101578.25;4966543;28;20139;-71
2023/05/31 08:41:27;;;;;;;0.30;0.10;;;;;;;20.21;35.73;101573.75;4963730;28;20049;-73
2023/05/31 08:43:55;;;;;;;0.10;0.05;;;;;;;20.22;35.13;101571.00;4966432;28;20051;-75
2023/05/31 08:46:22;;;;;;;0.20;0.00;;;;;;;20.24;35.50;101573.59;4952897;28;20090;-73
2023/05/31 08:48:54;;;;;;;1.50;0.10;;;;;;;20.23;35.48;101563.91;4954367;28;20055;-73
2023/05/31 08:51:24;;;;;;;0.73;0.10;;;;;;;20.31;34.34;101574.16;4955610;28;20051;-74
2023/05/31 08:53:52;;;;;;;2.50;0.10;;;;;;;20.36;34.65;101577.47;4956149;28;20055;-74
2023/05/31 08:56:21;;;;;;;3.03;0.10;;;;;;;20.38;33.34;101584.44;4959158;28;20042;-70
2023/05/31 08:58:50;;;;;;;2.05;0.10;;;;;;;20.39;34.03;101569.38;4962557;28;20050;-69
2023/05/31 09:01:19;;;;;;;3.80;0.20;;;;;;;20.39;34.70;101569.38;4962152;28;20054;-70
2023/05/31 09:03:46;;;;;;;0.98;0.10;;;;;;;20.38;34.64;101565.84;4962151;28;20054;-75
2023/05/31 09:06:13;;;;;;;0.90;0.10;;;;;;;20.38;33.52;101565.84;4966925;28;20109;-74
2023/05/31 09:08:40;;;;;;;1.67;0.20;;;;;;;20.47;34.13;101569.88;4965496;28;20050;-75
2023/05/31 09:11:07;;;;;;;1.92;0.15;;;;;;;20.49;34.53;101575.09;4966717;28;20078;-75
2023/05/31 09:13:36;;;;;;;4.15;0.20;;;;;;;20.53;34.23;101568.75;4962792;28;20514;-76
2023/05/31 09:16:03;;;;;;;3.60;0.10;;;;;;;20.56;33.90;101576.56;4953426;28;20063;-71
2023/05/31 09:18:37;;;;;;;0.45;0.20;;;;;;;20.61;34.22;101574.56;4961969;28;20053;-75
2023/05/31 09:21:12;;;;;;;1.30;0.10;;;;;;;20.65;34.20;101576.13;4964105;28;20046;-73
2023/05/31 09:23:39;;;;;;;0.15;0.00;;;;;;;20.68;34.06;101573.31;4967365;28;20058;-71
2023/05/31 09:26:08;;;;;;;0.63;0.10;;;;;;;20.71;34.52;101561.69;4965023;28;20141;-73
2023/05/31 09:28:36;;;;;;;1.45;0.10;;;;;;;20.71;33.55;101562.53;4966495;28;20059;-74
2023/05/31 09:31:05;;;;;;;0.20;0.10;;;;;;;20.76;34.03;101565.84;4966653;28;20047;-71
2023/05/31 09:33:39;;;;;;;5.57;0.15;;;;;;;20.79;33.80;101554.22;4965299;28;20047;-74
2023/05/31 09:36:06;;;;;;;2.03;0.10;;;;;;;20.85;34.18;101564.53;4965250;28;20042;-74
2023/05/31 09:38:34;;;;;;;0.50;0.10;;;;;;;20.88;34.57;101562.59;4966395;28;20601;-73
2023/05/31 09:41:13;;;;;;;2.90;0.28;;;;;;;20.87;34.03;101554.72;4967709;28;20142;-73
2023/05/31 09:43:42;;;;;;;0.82;0.10;;;;;;;20.92;33.85;101565.97;4966879;28;20109;-74
2023/05/31 09:46:12;;;;;;;2.45;0.20;;;;;;;20.95;33.19;101559.66;4966727;28;20055;-74
2023/05/31 09:48:39;;;;;;;0.60;0.10;;;;;;;20.98;33.32;101559.50;4965967;28;20090;-73
2023/05/31 09:51:09;;;;;;;2.97;0.10;;;;;;;21.01;33.49;101565.50;4965637;28;20043;-73
2023/05/31 09:53:41;;;;;;;0.25;0.10;;;;;;;21.04;33.55;101549.41;4967791;28;20043;-71
2023/05/31 09:56:12;;;;;;;0.93;0.25;;;;;;;21.02;33.30;101558.41;4965233;28;20089;-72
2023/05/31 09:58:40;;;;;;;0.30;0.10;;;;;;;21.09;33.86;101565.13;4968278;28;20066;-71
2023/05/31 10:01:10;;;;;;;1.75;0.10;;;;;;;21.11;33.37;101561.44;4965592;28;20056;-72
2023/05/31 10:03:40;;;;;;;1.90;0.10;;;;;;;21.11;34.12;101555.28;4966661;28;20055;-71
2023/05/31 10:06:08;;;;;;;0.52;0.10;;;;;;;21.09;33.83;101546.53;4968233;28;20060;-72
2023/05/31 10:08:36;;;;;;;0.20;0.10;;;;;;;21.17;33.73;101556.75;4966674;28;20062;-72
2023/05/31 10:11:03;;;;;;;1.35;0.17;;;;;;;21.20;33.67;101560.13;4965589;28;20463;-72
2023/05/31 10:13:31;;;;;;;0.10;0.10;;;;;;;21.23;33.24;101559.09;4959453;28;20823;-72
2023/05/31 10:16:05;;;;;;;3.40;0.13;;;;;;;21.14;33.05;101544.50;4965049;28;20049;-72
2023/05/31 10:18:38;;;;;;;1.67;0.20;;;;;;;21.22;32.86;101552.09;4964635;28;20047;-72
2023/05/31 10:21:13;;;;;;;0.95;0.10;;;;;;;21.24;33.28;101555.53;4964737;28;20050;-71
2023/05/31 10:23:45;;;;;;;3.25;0.10;;;;;;;21.25;33.49;101546.59;4967980;28;20523;-72
2023/05/31 10:26:15;;;;;;;1.90;0.10;;;;;;;21.27;32.97;101548.25;4965828;28;20596;-72
2023/05/31 10:28:48;;;;;;;0.63;0.05;;;;;;;21.27;33.27;101542.09;4967613;28;20050;-73
2023/05/31 10:31:16;;;;;;;0.30;0.20;;;;;;;21.28;33.04;101547.31;4963661;28;20046;-72
2023/05/31 10:33:49;;;;;;;2.53;0.10;;;;;;;21.30;33.25;101536.59;4964547;28;20047;-72
2023/05/31 10:36:18;;;;;;;1.30;0.13;;;;;;;21.31;33.89;101541.81;4963410;28;20046;-73
2023/05/31 10:38:53;;;;;;;1.35;0.20;;;;;;;21.25;33.56;101547.47;4966984;28;20118;-73
2023/05/31 10:41:24;;;;;;;1.05;0.10;;;;;;;21.29;33.36;101553.50;4965402;28;20078;-74
2023/05/31 10:43:58;;;;;;;0.98;0.10;;;;;;;21.27;32.75;101550.91;4962582;28;20059;-73
2023/05/31 10:46:27;;;;;;;0.47;0.10;;;;;;;21.23;32.87;101537.84;4966591;28;20491;-72
2023/05/31 10:48:58;;;;;;;0.28;0.10;;;;;;;21.26;33.30;101543.00;4961512;28;20054;-72
2023/05/31 10:51:39;;;;;;;1.48;0.10;;;;;;;21.26;32.60;101543.00;4966649;28;20049;-71
2023/05/31 10:54:06;;;;;;;1.00;0.08;;;;;;;21.20;32.88;101535.34;4962201;28;20461;-71
2023/05/31 10:56:36;;;;;;;2.33;0.40;;;;;;;21.22;33.07;101537.00;4964732;28;20058;-72
2023/05/31 10:59:04;;;;;;;0.43;0.15;;;;;;;21.22;33.67;101541.44;4965217;28;20555;-72
2023/05/31 11:01:31;;;;;;;0.63;0.10;;;;;;;21.20;33.55;101544.16;4963965;28;20487;-71
2023/05/31 11:04:01;;;;;;;2.00;0.13;;;;;;;21.21;33.49;101545.06;4964599;28;20110;-71
2023/05/31 11:06:30;;;;;;;3.83;0.17;;;;;;;21.21;33.17;101542.41;4964488;28;20057;-72
2023/05/31 11:09:01;;;;;;;1.00;0.10;;;;;;;21.19;32.61;101537.16;4964064;28;20057;-72
2023/05/31 11:11:46;;;;;;;3.47;0.63;;;;;;;21.20;33.25;101538.00;4967301;28;20125;-71
2023/05/31 11:14:27;;;;;;;2.60;0.20;;;;;;;21.19;33.87;101545.13;4964088;28;20046;-71
2023/05/31 11:17:15;;;;;;;0.60;0.10;;;;;;;21.15;33.88;101546.22;4968057;28;20059;-71
2023/05/31 11:19:44;;;;;;;0.38;0.20;;;;;;;21.20;33.39;101554.81;4966453;28;20105;-72
2023/05/31 11:22:14;;;;;;;0.88;0.10;;;;;;;21.20;33.22;101546.81;4968733;28;20042;-71
2023/05/31 11:24:51;;;;;;;1.52;0.77;;;;;;;21.18;32.88;101546.06;4970069;28;20508;-72
2023/05/31 11:27:19;;;;;;;0.93;0.20;;;;;;;21.09;33.09;101543.88;4967297;28;20053;-70
2023/05/31 11:30:00;;;;;;;2.30;0.10;;;;;;;21.13;33.40;101542.78;4969926;28;20419;-72